createdAt,value
2022-11-21T00:00:51.892Z,30.87
2022-11-21T00:03:18.796Z,30.00
2022-11-21T00:05:47.504Z,30.93
2022-11-21T00:08:16.410Z,30.13
2022-11-21T00:10:43.723Z,33.43
2022-11-21T00:13:15.968Z,29.53
2022-11-21T00:15:42.772Z,32.53
2022-11-21T00:18:11.678Z,32.03
2022-11-21T00:20:38.984Z,30.83
2022-11-21T00:23:05.928Z,29.53
2022-11-21T00:25:32.905Z,30.40
2022-11-21T00:27:59.668Z,31.43
2022-11-21T00:30:26.635Z,29.30
2022-11-21T00:32:53.319Z,31.37
2022-11-21T00:35:20.060Z,28.47
2022-11-21T00:37:48.663Z,30.03
2022-11-21T00:40:15.766Z,30.47
2022-11-21T00:42:42.772Z,31.13
2022-11-21T00:45:09.961Z,34.00
2022-11-21T00:47:36.729Z,30.20
2022-11-21T00:50:03.733Z,29.77
2022-11-21T00:52:30.417Z,31.07
2022-11-21T00:54:57.473Z,31.53
2022-11-21T00:57:24.224Z,32.33
2022-11-21T00:59:50.980Z,33.23
2022-11-21T01:02:17.637Z,31.03
2022-11-21T01:04:44.340Z,33.90
2022-11-21T01:07:14.377Z,31.57
2022-11-21T01:09:41.272Z,33.37
2022-11-21T01:12:08.054Z,33.83
2022-11-21T01:14:34.834Z,32.20
2022-11-21T01:17:01.592Z,33.53
2022-11-21T01:19:28.324Z,31.73
2022-11-21T01:21:55.042Z,32.53
2022-11-21T01:24:21.798Z,32.53
2022-11-21T01:26:50.927Z,32.00
2022-11-21T01:29:17.738Z,31.93
2022-11-21T01:31:44.580Z,34.80
2022-11-21T01:34:11.598Z,31.43
2022-11-21T01:36:38.284Z,33.00
2022-11-21T01:39:06.401Z,32.33
2022-11-21T01:41:39.003Z,32.07
2022-11-21T01:44:22.547Z,34.60
2022-11-21T01:46:50.970Z,31.37
2022-11-21T01:49:26.195Z,33.67
2022-11-21T01:52:08.569Z,30.83
2022-11-21T01:54:52.014Z,33.10
2022-11-21T01:57:41.073Z,33.57
2022-11-21T02:00:15.501Z,32.97
2022-11-21T02:02:46.295Z,29.40
2022-11-21T02:05:21.295Z,32.10
2022-11-21T02:07:49.387Z,30.73
2022-11-21T02:10:16.537Z,32.27
2022-11-21T02:12:52.311Z,31.47
2022-11-21T02:15:20.359Z,32.50
2022-11-21T02:17:47.291Z,32.23
2022-11-21T02:20:17.555Z,33.30
2022-11-21T02:22:50.113Z,32.00
2022-11-21T02:25:22.201Z,32.17
2022-11-21T02:27:52.556Z,31.97
2022-11-21T02:30:19.661Z,29.67
2022-11-21T02:32:49.490Z,30.53
2022-11-21T02:35:18.047Z,31.37
2022-11-21T02:38:01.160Z,31.63
2022-11-21T02:40:33.154Z,31.73
2022-11-21T02:43:23.251Z,31.87
2022-11-21T02:45:49.979Z,31.40
2022-11-21T02:48:16.806Z,34.73
2022-11-21T02:50:46.205Z,34.50
2022-11-21T02:53:16.957Z,34.23
2022-11-21T02:55:44.549Z,33.33
2022-11-21T02:58:11.910Z,35.20
2022-11-21T03:00:40.408Z,32.73
2022-11-21T03:03:07.297Z,32.63
2022-11-21T03:05:34.120Z,34.60
2022-11-21T03:08:00.860Z,32.43
2022-11-21T03:10:27.838Z,33.33
2022-11-21T03:13:01.046Z,34.30
2022-11-21T03:15:33.760Z,34.57
2022-11-21T03:18:02.726Z,33.63
2022-11-21T03:20:32.757Z,33.03
2022-11-21T03:22:59.505Z,34.87
2022-11-21T03:25:26.895Z,33.43
2022-11-21T03:27:54.411Z,33.87
2022-11-21T03:30:22.575Z,31.93
2022-11-21T03:32:49.369Z,32.00
2022-11-21T03:35:16.481Z,32.70
2022-11-21T03:37:43.181Z,33.50
2022-11-21T03:40:10.513Z,33.77
2022-11-21T03:42:37.180Z,32.10
2022-11-21T03:45:04.383Z,33.63
2022-11-21T03:47:31.126Z,31.77
2022-11-21T03:49:57.814Z,34.97
2022-11-21T03:52:24.570Z,34.83
2022-11-21T03:54:51.304Z,34.20
2022-11-21T03:57:17.987Z,35.00
2022-11-21T03:59:44.664Z,34.40
2022-11-21T04:02:11.443Z,32.83
2022-11-21T04:04:38.176Z,32.77
2022-11-21T04:07:04.925Z,33.00
2022-11-21T04:09:34.684Z,33.07
2022-11-21T04:12:06.433Z,33.37
2022-11-21T04:14:34.320Z,34.13
2022-11-21T04:17:01.058Z,32.67
2022-11-21T04:19:27.720Z,32.70
2022-11-21T04:21:54.413Z,35.60
2022-11-21T04:24:21.103Z,35.17
2022-11-21T04:26:47.856Z,38.53
2022-11-21T04:29:14.698Z,34.53
2022-11-21T04:31:41.357Z,34.60
2022-11-21T04:34:08.130Z,34.13
2022-11-21T04:36:34.902Z,34.73
2022-11-21T04:39:01.639Z,36.17
2022-11-21T04:41:28.394Z,37.03
2022-11-21T04:43:55.205Z,37.73
2022-11-21T04:46:21.908Z,37.90
2022-11-21T04:48:48.577Z,36.53
2022-11-21T04:51:15.310Z,36.60
2022-11-21T04:53:43.297Z,36.43
2022-11-21T04:56:10.508Z,38.53
2022-11-21T04:58:40.931Z,36.77
2022-11-21T05:01:09.162Z,38.60
2022-11-21T05:03:36.734Z,38.30
2022-11-21T05:06:03.864Z,37.17
2022-11-21T05:08:30.735Z,38.57
2022-11-21T05:11:16.568Z,36.67
2022-11-21T05:13:46.274Z,37.37
2022-11-21T05:16:13.222Z,39.33
2022-11-21T05:18:40.135Z,36.10
2022-11-21T05:21:06.895Z,43.13
2022-11-21T05:23:33.592Z,41.17
2022-11-21T05:26:00.323Z,45.03
2022-11-21T05:28:27.447Z,42.97
2022-11-21T05:30:54.185Z,42.57
2022-11-21T05:33:21.453Z,41.07
2022-11-21T05:35:48.504Z,39.97
2022-11-21T05:38:15.258Z,39.20
2022-11-21T05:40:41.993Z,42.60
2022-11-21T05:43:30.149Z,42.37
2022-11-21T05:45:56.942Z,43.07
2022-11-21T05:48:23.689Z,42.30
2022-11-21T05:50:50.589Z,46.40
2022-11-21T05:53:18.031Z,44.83
2022-11-21T05:55:45.186Z,46.37
2022-11-21T05:58:13.644Z,44.83
2022-11-21T06:00:40.504Z,46.13
2022-11-21T06:03:27.159Z,44.10
2022-11-21T06:06:15.205Z,44.30
2022-11-21T06:08:44.161Z,42.20
2022-11-21T06:11:13.883Z,45.23
2022-11-21T06:13:41.269Z,45.30
2022-11-21T06:16:16.197Z,45.77
2022-11-21T06:18:45.127Z,42.43
2022-11-21T06:21:20.156Z,43.00
2022-11-21T06:23:48.129Z,41.90
2022-11-21T06:26:16.648Z,42.47
2022-11-21T06:28:44.504Z,44.70
2022-11-21T06:31:23.073Z,43.43
2022-11-21T06:33:57.954Z,43.30
2022-11-21T06:36:25.664Z,45.03
2022-11-21T06:38:54.285Z,42.63
2022-11-21T06:41:26.123Z,45.77
2022-11-21T06:43:53.232Z,44.00
2022-11-21T06:46:20.281Z,47.07
2022-11-21T06:48:47.724Z,43.27
2022-11-21T06:51:18.551Z,45.60
2022-11-21T06:53:45.955Z,42.27
2022-11-21T06:56:12.718Z,65.53
2022-11-21T06:58:39.447Z,49.03
2022-11-21T07:01:08.243Z,48.50
2022-11-21T07:03:35.642Z,43.33
2022-11-21T07:06:03.671Z,45.20
2022-11-21T07:08:32.100Z,45.23
2022-11-21T07:13:53.347Z,44.83
2022-11-21T07:16:20.056Z,44.57
2022-11-21T07:18:46.800Z,45.50
2022-11-21T07:21:13.481Z,44.73
2022-11-21T07:23:40.233Z,44.47
2022-11-21T07:26:08.265Z,46.00
2022-11-21T07:28:35.225Z,43.57
2022-11-21T07:31:07.102Z,45.47
2022-11-21T07:33:40.127Z,50.70
2022-11-21T07:36:07.324Z,45.03
2022-11-21T07:38:34.222Z,53.80
2022-11-21T07:41:01.039Z,52.83
2022-11-21T07:43:27.746Z,55.13
2022-11-21T07:45:54.493Z,49.97
2022-11-21T07:48:21.287Z,57.30
2022-11-21T07:50:48.019Z,53.80
2022-11-21T07:53:17.219Z,55.83
2022-11-21T07:55:43.938Z,51.70
2022-11-21T07:58:16.149Z,55.33
2022-11-21T08:00:43.180Z,52.97
2022-11-21T08:03:12.201Z,55.57
2022-11-21T08:05:41.262Z,53.43
2022-11-21T08:08:08.510Z,55.03
2022-11-21T08:10:39.022Z,45.43
2022-11-21T08:13:06.101Z,46.17
2022-11-21T08:15:32.912Z,46.33
2022-11-21T08:18:06.521Z,46.57
2022-11-21T08:20:33.295Z,47.73
2022-11-21T08:23:00.123Z,41.20
2022-11-21T08:25:30.497Z,46.00
2022-11-21T08:27:57.916Z,47.80
2022-11-21T08:30:25.935Z,50.07
2022-11-21T08:32:52.800Z,41.67
2022-11-21T08:35:19.901Z,45.33
2022-11-21T08:37:49.071Z,42.30
2022-11-21T08:40:18.275Z,45.93
2022-11-21T08:42:44.940Z,44.60
2022-11-21T08:45:11.659Z,43.03
2022-11-21T08:47:38.382Z,40.03
2022-11-21T08:50:08.801Z,42.83
2022-11-21T08:52:36.200Z,42.00
2022-11-21T08:55:02.964Z,39.07
2022-11-21T08:57:31.453Z,38.33
2022-11-21T08:59:58.226Z,36.23
2022-11-21T09:02:24.882Z,34.87
2022-11-21T09:04:51.619Z,37.23
2022-11-21T09:07:18.318Z,32.53
2022-11-21T09:09:45.043Z,36.60
2022-11-21T09:12:11.799Z,33.03
2022-11-21T09:14:57.329Z,33.67
2022-11-21T09:17:42.606Z,34.07
2022-11-21T09:20:09.857Z,32.53
2022-11-21T09:22:39.442Z,34.60
2022-11-21T09:25:06.315Z,36.67
2022-11-21T09:27:32.990Z,34.70
2022-11-21T09:30:00.299Z,36.33
2022-11-21T09:32:27.044Z,37.67
2022-11-21T09:34:53.719Z,34.60
2022-11-21T09:37:20.475Z,34.57
2022-11-21T09:39:47.213Z,35.33
2022-11-21T09:43:07.780Z,33.93
2022-11-21T09:45:40.495Z,33.73
2022-11-21T09:48:14.275Z,32.03
2022-11-21T09:51:12.054Z,32.00
2022-11-21T09:54:12.413Z,30.57
2022-11-21T09:56:42.353Z,27.80
2022-11-21T09:59:39.165Z,27.43
2022-11-21T10:02:16.183Z,28.90
2022-11-21T10:04:44.489Z,28.73
2022-11-21T10:07:21.592Z,29.83
2022-11-21T10:10:03.729Z,29.60
2022-11-21T10:12:57.447Z,30.73
2022-11-21T10:15:30.619Z,30.80
2022-11-21T10:18:06.396Z,32.57
2022-11-21T10:20:44.896Z,31.73
2022-11-21T10:23:43.234Z,32.17
2022-11-21T10:26:36.053Z,32.10
2022-11-21T10:29:15.174Z,31.57
2022-11-21T10:31:43.040Z,30.97
2022-11-21T10:34:19.866Z,38.47
2022-11-21T10:36:52.296Z,32.30
2022-11-21T10:39:25.005Z,36.67
2022-11-21T10:42:31.379Z,37.47
2022-11-21T10:45:16.549Z,35.27
2022-11-21T10:47:44.869Z,37.40
2022-11-21T10:50:48.982Z,32.37
2022-11-21T10:53:42.840Z,33.67
2022-11-21T10:56:19.330Z,34.07
2022-11-21T10:58:49.509Z,35.63
2022-11-21T11:01:23.693Z,35.40
2022-11-21T11:04:28.813Z,33.97
2022-11-21T11:07:00.097Z,30.83
2022-11-21T11:09:32.664Z,36.73
2022-11-21T11:12:21.276Z,35.37
2022-11-21T11:14:56.156Z,35.80
2022-11-21T11:17:34.242Z,37.60
2022-11-21T11:20:05.658Z,40.97
2022-11-21T11:22:32.393Z,36.90
2022-11-21T11:25:00.936Z,36.40
2022-11-21T11:27:29.427Z,38.93
2022-11-21T11:29:56.373Z,38.20
2022-11-21T11:32:24.994Z,38.30
2022-11-21T11:35:01.208Z,38.67
2022-11-21T11:37:41.498Z,38.13
2022-11-21T11:40:20.604Z,35.20
2022-11-21T11:43:19.613Z,35.97
2022-11-21T11:46:22.016Z,37.00
2022-11-21T11:49:17.356Z,36.77
2022-11-21T11:51:44.720Z,39.43
2022-11-21T11:54:25.218Z,38.57
2022-11-21T11:56:52.774Z,39.33
2022-11-21T11:59:25.758Z,40.00
2022-11-21T12:02:29.243Z,39.73
2022-11-21T12:05:05.241Z,38.27
2022-11-21T12:10:31.180Z,38.37
2022-11-21T12:13:19.246Z,38.27
2022-11-21T12:15:59.944Z,40.00
2022-11-21T12:18:45.352Z,38.80
2022-11-21T12:21:18.804Z,38.37
2022-11-21T12:23:54.083Z,37.13
2022-11-21T12:26:20.727Z,37.53
2022-11-21T12:29:12.467Z,39.83
2022-11-21T12:32:26.414Z,36.60
2022-11-21T12:35:01.856Z,38.13
2022-11-21T12:37:47.182Z,37.57
2022-11-21T12:40:27.067Z,39.07
2022-11-21T12:43:12.540Z,39.30
2022-11-21T12:46:01.179Z,37.93
2022-11-21T12:49:17.219Z,37.00
2022-11-21T12:52:32.576Z,36.13
2022-11-21T12:55:09.839Z,38.33
2022-11-21T12:57:44.712Z,36.93
2022-11-21T13:00:12.055Z,37.87
2022-11-21T13:03:03.692Z,39.00
2022-11-21T13:05:33.792Z,38.83
2022-11-21T13:08:05.892Z,36.83
2022-11-21T13:10:32.908Z,36.03
2022-11-21T13:13:14.491Z,35.57
2022-11-21T13:15:51.710Z,35.57
2022-11-21T13:18:41.910Z,33.57
2022-11-21T13:21:41.927Z,34.20
2022-11-21T13:24:09.592Z,33.07
2022-11-21T13:26:36.498Z,34.83
2022-11-21T13:29:11.591Z,33.73
2022-11-21T13:31:39.061Z,33.17
2022-11-21T13:34:26.371Z,33.70
2022-11-21T13:36:53.350Z,32.70
2022-11-21T13:39:27.508Z,32.67
2022-11-21T13:42:27.557Z,33.63
2022-11-21T13:44:54.976Z,33.27
2022-11-21T13:47:41.128Z,33.13
2022-11-21T13:50:28.551Z,33.73
2022-11-21T13:53:28.184Z,34.00
2022-11-21T13:56:08.902Z,33.63
2022-11-21T13:59:01.701Z,32.43
2022-11-21T14:01:40.499Z,34.67
2022-11-21T14:04:55.286Z,34.03
2022-11-21T14:07:30.966Z,34.53
2022-11-21T14:10:01.505Z,34.00
2022-11-21T14:12:42.763Z,34.53
2022-11-21T14:15:16.857Z,35.03
2022-11-21T14:18:21.883Z,35.00
2022-11-21T14:20:56.904Z,33.60
2022-11-21T14:23:25.959Z,34.47
2022-11-21T14:26:12.621Z,36.10
2022-11-21T14:28:40.348Z,34.53
2022-11-21T14:31:12.428Z,35.03
2022-11-21T14:33:43.481Z,34.57
2022-11-21T14:36:19.928Z,37.33
2022-11-21T14:39:07.693Z,34.90
2022-11-21T14:41:39.144Z,34.40
2022-11-21T14:44:15.455Z,34.73
2022-11-21T14:46:43.555Z,33.33
2022-11-21T14:49:21.886Z,35.10
2022-11-21T14:51:51.921Z,34.83
2022-11-21T14:54:34.539Z,33.73
2022-11-21T14:57:08.164Z,33.80
2022-11-21T14:59:42.969Z,35.83
2022-11-21T15:02:16.386Z,34.33
2022-11-21T15:04:44.516Z,35.10
2022-11-21T15:07:31.545Z,33.00
2022-11-21T15:10:28.647Z,33.73
2022-11-21T15:12:48.638Z,33.27
2022-11-21T15:15:21.499Z,33.37
2022-11-21T15:18:18.557Z,33.27
2022-11-21T15:20:48.130Z,33.57
2022-11-21T15:23:29.137Z,34.13
2022-11-21T15:26:00.578Z,33.07
2022-11-21T15:28:29.323Z,33.77
2022-11-21T15:31:17.242Z,33.30
2022-11-21T15:34:33.744Z,34.87
2022-11-21T15:37:12.174Z,34.67
2022-11-21T15:39:44.308Z,36.13
2022-11-21T15:42:37.532Z,34.03
2022-11-21T15:45:20.065Z,33.00
2022-11-21T15:47:48.256Z,36.30
2022-11-21T15:50:15.733Z,38.03
2022-11-21T15:52:48.238Z,40.60
2022-11-21T15:55:35.373Z,40.50
2022-11-21T15:58:02.114Z,37.77
2022-11-21T16:00:28.933Z,36.57
2022-11-21T16:02:55.729Z,36.33
2022-11-21T16:05:22.550Z,35.10
2022-11-21T16:07:49.252Z,35.23
2022-11-21T16:10:21.338Z,35.67
2022-11-21T16:12:52.715Z,36.27
2022-11-21T16:15:19.465Z,36.17
2022-11-21T16:17:47.802Z,35.67
2022-11-21T16:20:15.227Z,37.17
2022-11-21T16:22:47.144Z,37.07
2022-11-21T16:25:14.888Z,40.13
2022-11-21T16:27:41.629Z,38.63
2022-11-21T16:30:08.746Z,37.73
2022-11-21T16:32:35.443Z,38.43
2022-11-21T16:35:02.158Z,37.40
2022-11-21T16:37:31.643Z,38.73
2022-11-21T16:39:58.297Z,38.27
2022-11-21T16:42:25.317Z,35.97
2022-11-21T16:44:51.999Z,37.00
2022-11-21T16:47:18.795Z,36.47
2022-11-21T16:49:48.586Z,37.03
2022-11-21T16:52:15.913Z,36.67
2022-11-21T16:54:42.595Z,37.80
2022-11-21T16:57:09.524Z,35.37
2022-11-21T16:59:36.193Z,37.40
2022-11-21T17:02:02.920Z,36.80
2022-11-21T17:04:36.351Z,37.93
2022-11-21T17:07:03.177Z,36.70
2022-11-21T17:09:29.906Z,36.00
2022-11-21T17:11:59.667Z,36.00
2022-11-21T17:14:26.783Z,37.33
2022-11-21T17:16:54.059Z,37.13
2022-11-21T17:19:20.866Z,36.53
2022-11-21T17:21:47.556Z,35.57
2022-11-21T17:24:14.524Z,37.00
2022-11-21T17:26:41.243Z,37.33
2022-11-21T17:29:09.057Z,35.50
2022-11-21T17:31:35.825Z,38.70
2022-11-21T17:34:02.539Z,37.90
2022-11-21T17:36:30.619Z,35.37
2022-11-21T17:38:57.403Z,35.57
2022-11-21T17:41:24.892Z,37.30
2022-11-21T17:43:58.594Z,37.60
2022-11-21T17:46:25.949Z,35.07
2022-11-21T17:48:57.130Z,38.13
2022-11-21T17:51:34.526Z,36.30
2022-11-21T17:54:05.079Z,36.17
2022-11-21T17:56:42.387Z,35.40
2022-11-21T17:59:15.637Z,35.50
2022-11-21T18:01:42.799Z,34.60
2022-11-21T18:04:14.912Z,36.27
2022-11-21T18:06:42.146Z,35.20
2022-11-21T18:09:15.023Z,37.23
2022-11-21T18:11:41.813Z,34.93
2022-11-21T18:14:10.861Z,37.53
2022-11-21T18:16:39.448Z,37.40
2022-11-21T18:19:06.612Z,34.47
2022-11-21T18:21:35.485Z,35.80
2022-11-21T18:24:02.435Z,35.30
2022-11-21T18:26:35.496Z,36.37
2022-11-21T18:31:50.504Z,33.90
2022-11-21T18:34:17.314Z,36.13
2022-11-21T18:36:44.092Z,33.43
2022-11-21T18:39:14.717Z,34.53
2022-11-21T18:41:42.577Z,34.10
2022-11-21T18:44:09.948Z,34.73
2022-11-21T18:46:38.388Z,32.13
2022-11-21T18:49:06.814Z,32.30
2022-11-21T18:51:35.252Z,32.37
2022-11-21T18:54:08.082Z,31.60
2022-11-21T18:56:39.814Z,31.03
2022-11-21T18:59:07.121Z,32.47
2022-11-21T19:01:35.623Z,30.57
2022-11-21T19:04:02.691Z,31.63
2022-11-21T19:06:29.658Z,32.93
2022-11-21T19:08:58.167Z,33.20
2022-11-21T19:11:27.435Z,31.70
2022-11-21T19:13:55.665Z,28.53
2022-11-21T19:16:25.288Z,29.50
2022-11-21T19:21:41.255Z,28.47
2022-11-21T19:24:13.218Z,29.63
2022-11-21T19:26:40.299Z,27.23
2022-11-21T19:29:07.026Z,27.90
2022-11-21T19:31:35.705Z,27.13
2022-11-21T19:34:05.957Z,27.00
2022-11-21T19:36:32.672Z,28.13
2022-11-21T19:39:00.324Z,26.53
2022-11-21T19:41:27.146Z,27.20
2022-11-21T19:43:57.131Z,28.33
2022-11-21T19:46:31.091Z,26.63
2022-11-21T19:48:58.591Z,27.57
2022-11-21T19:51:31.081Z,27.47
2022-11-21T19:53:58.024Z,25.50
2022-11-21T19:56:26.037Z,26.90
2022-11-21T19:58:53.328Z,26.23
2022-11-21T20:01:22.503Z,26.10
2022-11-21T20:03:52.129Z,26.20
2022-11-21T20:06:25.019Z,26.77
2022-11-21T20:08:54.143Z,23.60
2022-11-21T20:11:21.834Z,24.40
2022-11-21T20:13:49.745Z,22.77
2022-11-21T20:16:26.830Z,22.67
2022-11-21T20:18:57.733Z,23.00
2022-11-21T20:21:27.369Z,22.33
2022-11-21T20:23:54.931Z,22.03
2022-11-21T20:26:23.276Z,22.00
2022-11-21T20:28:50.152Z,20.23
2022-11-21T20:31:19.214Z,22.67
2022-11-21T20:33:51.378Z,21.43
2022-11-21T20:36:20.507Z,20.93
2022-11-21T20:39:21.411Z,21.87
2022-11-21T20:41:48.457Z,20.03
2022-11-21T20:47:08.500Z,20.90
2022-11-21T20:49:35.373Z,20.30
2022-11-21T20:54:49.026Z,21.97
2022-11-21T20:57:16.038Z,21.83
2022-11-21T20:59:43.309Z,20.50
2022-11-21T21:02:14.032Z,19.87
2022-11-21T21:04:41.408Z,20.10
2022-11-21T21:07:08.260Z,19.17
2022-11-21T21:09:35.149Z,18.40
2022-11-21T21:12:01.889Z,18.67
2022-11-21T21:14:28.785Z,19.27
2022-11-21T21:16:55.633Z,19.07
2022-11-21T21:19:22.483Z,20.73
2022-11-21T21:21:50.214Z,19.17
2022-11-21T21:24:17.371Z,17.30
2022-11-21T21:26:48.819Z,17.40
2022-11-21T21:29:18.402Z,18.73
2022-11-21T21:31:50.368Z,18.10
2022-11-21T21:34:18.815Z,17.90
2022-11-21T21:36:45.553Z,19.03
2022-11-21T21:39:12.254Z,18.87
2022-11-21T21:41:46.012Z,18.00
2022-11-21T21:44:13.351Z,16.97
2022-11-21T21:46:40.091Z,19.30
2022-11-21T21:49:06.827Z,19.77
2022-11-21T21:51:33.646Z,16.73
2022-11-21T21:54:00.454Z,16.33
2022-11-21T21:56:28.936Z,16.63
2022-11-21T21:58:58.612Z,18.27
2022-11-21T22:01:30.721Z,17.20
2022-11-21T22:03:59.314Z,19.03
2022-11-21T22:06:26.639Z,16.87
2022-11-21T22:08:54.610Z,17.07
2022-11-21T22:11:26.713Z,17.47
2022-11-21T22:13:58.236Z,16.30
2022-11-21T22:16:25.849Z,16.97
2022-11-21T22:18:52.674Z,18.43
2022-11-21T22:21:36.992Z,16.27
2022-11-21T22:24:25.000Z,15.20
2022-11-21T22:27:02.660Z,15.37
2022-11-21T22:29:29.358Z,15.00
2022-11-21T22:31:56.162Z,15.27
2022-11-21T22:34:23.094Z,15.20
2022-11-21T22:36:49.981Z,15.57
2022-11-21T22:39:19.322Z,14.37
2022-11-21T22:41:46.139Z,13.60
2022-11-21T22:44:13.180Z,14.97
2022-11-21T22:46:39.945Z,14.33
2022-11-21T22:49:08.809Z,14.47
2022-11-21T22:51:38.112Z,14.10
2022-11-21T22:54:04.888Z,14.80
2022-11-21T22:56:31.575Z,13.27
2022-11-21T22:58:58.350Z,13.73
2022-11-21T23:01:26.350Z,13.77
2022-11-21T23:03:53.479Z,14.90
2022-11-21T23:06:23.589Z,15.17
2022-11-21T23:08:51.331Z,14.17
2022-11-21T23:11:24.437Z,13.37
2022-11-21T23:13:52.056Z,15.40
2022-11-21T23:16:19.649Z,14.60
2022-11-21T23:18:46.627Z,14.07
2022-11-21T23:21:13.879Z,14.43
2022-11-21T23:23:40.965Z,14.40
2022-11-21T23:26:07.742Z,14.80
2022-11-21T23:28:34.576Z,14.53
2022-11-21T23:31:01.702Z,13.90
2022-11-21T23:33:28.383Z,13.87
2022-11-21T23:35:55.294Z,13.07
2022-11-21T23:38:22.188Z,14.83
2022-11-21T23:40:49.900Z,13.70
2022-11-21T23:43:17.839Z,13.53
2022-11-21T23:45:45.549Z,13.83
2022-11-21T23:48:12.462Z,12.87
2022-11-21T23:50:39.295Z,13.33
2022-11-21T23:53:06.121Z,13.57
2022-11-21T23:55:32.887Z,12.83
2022-11-21T23:58:02.214Z,11.83
